createdAt,value
2018-11-26T00:00:26.963Z,4.44
2018-11-26T00:02:54.402Z,4.45
2018-11-26T00:05:21.833Z,4.52
2018-11-26T00:07:49.259Z,4.49
2018-11-26T00:10:16.694Z,4.45
2018-11-26T00:12:44.119Z,4.50
2018-11-26T00:15:11.612Z,4.53
2018-11-26T00:17:39.063Z,4.54
2018-11-26T00:20:06.530Z,4.57
2018-11-26T00:22:34.631Z,4.58
2018-11-26T00:25:02.072Z,4.60
2018-11-26T00:27:29.496Z,4.65
2018-11-26T00:29:56.923Z,4.66
2018-11-26T00:32:24.355Z,4.92
2018-11-26T00:34:51.887Z,5.02
2018-11-26T00:37:20.166Z,5.28
2018-11-26T00:39:47.618Z,5.25
2018-11-26T00:42:15.057Z,5.32
2018-11-26T00:44:42.483Z,5.31
2018-11-26T00:47:10.186Z,5.26
2018-11-26T00:49:37.614Z,5.43
2018-11-26T00:52:05.119Z,5.52
2018-11-26T00:54:32.547Z,5.60
2018-11-26T00:56:59.974Z,5.53
2018-11-26T00:59:27.411Z,5.57
2018-11-26T01:01:54.845Z,5.56
2018-11-26T01:04:22.285Z,5.66
2018-11-26T01:06:49.969Z,5.91
2018-11-26T01:09:17.416Z,6.09
2018-11-26T01:11:44.846Z,6.08
2018-11-26T01:14:12.279Z,5.97
2018-11-26T01:16:39.705Z,6.07
2018-11-26T01:19:07.159Z,6.28
2018-11-26T01:21:34.679Z,6.19
2018-11-26T01:24:02.037Z,6.20
2018-11-26T01:26:29.454Z,6.15
2018-11-26T01:28:56.925Z,6.26
2018-11-26T01:31:24.304Z,6.18
2018-11-26T01:33:52.098Z,6.08
2018-11-26T01:36:19.526Z,6.24
2018-11-26T01:38:46.959Z,6.13
2018-11-26T01:41:14.406Z,6.05
2018-11-26T01:43:41.846Z,6.28
2018-11-26T01:46:09.280Z,6.17
2018-11-26T01:48:36.744Z,6.13
2018-11-26T01:51:04.198Z,6.28
2018-11-26T01:53:31.640Z,6.14
2018-11-26T01:55:59.114Z,6.21
2018-11-26T01:58:26.626Z,6.36
2018-11-26T02:00:54.054Z,6.23
2018-11-26T02:03:21.478Z,6.27
2018-11-26T02:05:48.922Z,6.30
2018-11-26T02:08:16.342Z,6.26
2018-11-26T02:10:43.776Z,6.23
2018-11-26T02:13:11.221Z,6.21
2018-11-26T02:15:39.569Z,6.16
2018-11-26T02:18:06.994Z,6.10
2018-11-26T02:20:34.433Z,6.16
2018-11-26T02:23:01.866Z,6.20
2018-11-26T02:25:29.339Z,6.18
2018-11-26T02:27:56.763Z,6.14
2018-11-26T02:30:24.195Z,6.25
2018-11-26T02:32:51.626Z,6.31
2018-11-26T02:35:19.066Z,6.26
2018-11-26T02:37:46.491Z,6.21
2018-11-26T02:40:13.941Z,6.17
2018-11-26T02:42:41.423Z,6.33
2018-11-26T02:45:08.864Z,6.17
2018-11-26T02:47:36.344Z,6.13
2018-11-26T02:50:03.773Z,6.04
2018-11-26T02:52:31.249Z,6.04
2018-11-26T02:54:58.687Z,6.06
2018-11-26T02:57:26.178Z,6.22
2018-11-26T02:59:53.620Z,6.28
2018-11-26T03:02:21.051Z,6.21
2018-11-26T03:04:48.546Z,6.26
2018-11-26T03:07:15.983Z,6.19
2018-11-26T03:09:43.410Z,6.27
2018-11-26T03:12:10.842Z,6.26
2018-11-26T03:14:38.271Z,6.19
2018-11-26T03:17:05.726Z,6.29
2018-11-26T03:19:33.318Z,6.15
2018-11-26T03:22:00.750Z,6.13
2018-11-26T03:24:28.177Z,6.04
2018-11-26T03:26:55.611Z,6.10
2018-11-26T03:29:23.044Z,6.16
2018-11-26T03:31:50.578Z,6.16
2018-11-26T03:34:18.015Z,6.07
2018-11-26T03:36:45.546Z,6.03
2018-11-26T03:39:12.909Z,6.05
2018-11-26T03:41:40.339Z,6.17
2018-11-26T03:44:07.762Z,6.15
2018-11-26T03:46:35.190Z,6.13
2018-11-26T03:49:02.619Z,6.23
2018-11-26T03:51:30.134Z,6.05
2018-11-26T03:53:57.553Z,6.07
2018-11-26T03:56:24.991Z,6.10
2018-11-26T03:58:52.427Z,6.15
2018-11-26T04:01:19.851Z,6.00
2018-11-26T04:03:47.329Z,6.02
2018-11-26T04:06:14.770Z,6.04
2018-11-26T04:08:42.195Z,6.00
2018-11-26T04:11:09.631Z,5.98
2018-11-26T04:13:37.058Z,6.05
2018-11-26T04:16:04.502Z,6.01
2018-11-26T04:18:31.966Z,6.02
2018-11-26T04:20:59.432Z,5.94
2018-11-26T04:23:26.854Z,5.98
2018-11-26T04:25:54.330Z,6.00
2018-11-26T04:28:21.754Z,5.90
2018-11-26T04:30:49.191Z,5.99
2018-11-26T04:33:16.626Z,5.89
2018-11-26T04:35:44.050Z,5.97
2018-11-26T04:38:11.478Z,5.80
2018-11-26T04:40:38.909Z,5.81
2018-11-26T04:43:06.329Z,5.92
2018-11-26T04:45:33.785Z,5.86
2018-11-26T04:48:01.218Z,5.80
2018-11-26T04:50:28.659Z,5.76
2018-11-26T04:52:56.095Z,5.76
2018-11-26T04:55:24.286Z,5.74
2018-11-26T04:57:51.735Z,5.78
2018-11-26T05:00:19.157Z,5.74
2018-11-26T05:02:46.585Z,5.71
2018-11-26T05:05:14.214Z,5.65
2018-11-26T05:07:41.676Z,5.65
2018-11-26T05:10:09.114Z,5.57
2018-11-26T05:12:36.641Z,5.61
2018-11-26T05:15:04.069Z,5.61
2018-11-26T05:17:31.494Z,5.56
2018-11-26T05:19:58.926Z,5.57
2018-11-26T05:22:26.362Z,5.54
2018-11-26T05:24:53.826Z,5.52
2018-11-26T05:27:21.254Z,5.50
2018-11-26T05:29:48.737Z,5.57
2018-11-26T05:32:16.209Z,5.49
2018-11-26T05:34:43.634Z,5.54
2018-11-26T05:37:11.116Z,5.57
2018-11-26T05:39:38.578Z,5.57
2018-11-26T05:42:05.998Z,5.59
2018-11-26T05:44:33.498Z,5.53
2018-11-26T05:47:00.918Z,5.46
2018-11-26T05:49:28.346Z,5.44
2018-11-26T05:51:55.774Z,5.40
2018-11-26T05:54:23.197Z,5.48
2018-11-26T05:56:50.680Z,5.52
2018-11-26T05:59:18.101Z,5.48
2018-11-26T06:01:45.590Z,5.44
2018-11-26T06:04:13.045Z,5.36
2018-11-26T06:06:40.502Z,5.36
2018-11-26T06:09:07.944Z,5.50
2018-11-26T06:11:35.417Z,5.48
2018-11-26T06:14:02.843Z,5.37
2018-11-26T06:16:30.334Z,5.27
2018-11-26T06:18:57.799Z,5.31
2018-11-26T06:21:25.227Z,5.32
2018-11-26T06:23:52.806Z,5.29
2018-11-26T06:26:20.258Z,5.31
2018-11-26T06:28:47.678Z,5.30
2018-11-26T06:31:15.187Z,5.28
2018-11-26T06:33:42.682Z,5.29
2018-11-26T06:36:10.107Z,5.20
2018-11-26T06:38:37.538Z,5.17
2018-11-26T06:41:05.009Z,5.21
2018-11-26T06:43:32.442Z,5.19
2018-11-26T06:45:59.875Z,5.17
2018-11-26T06:48:27.381Z,5.09
2018-11-26T06:50:54.810Z,5.10
2018-11-26T06:53:22.303Z,5.14
2018-11-26T06:55:49.738Z,5.18
2018-11-26T06:58:17.217Z,5.17
2018-11-26T07:00:44.643Z,5.17
2018-11-26T07:03:12.077Z,5.17
2018-11-26T07:05:39.492Z,5.18
2018-11-26T07:08:06.928Z,5.18
2018-11-26T07:10:34.349Z,5.22
2018-11-26T07:13:01.770Z,5.21
2018-11-26T07:15:29.190Z,5.23
2018-11-26T07:17:56.617Z,5.29
2018-11-26T07:20:24.503Z,5.28
2018-11-26T07:22:51.930Z,5.22
2018-11-26T07:25:20.966Z,5.28
2018-11-26T07:27:48.390Z,5.30
2018-11-26T07:30:15.805Z,5.25
2018-11-26T07:32:43.257Z,5.26
2018-11-26T07:35:10.955Z,5.22
2018-11-26T07:37:38.389Z,5.20
2018-11-26T07:40:05.854Z,5.13
2018-11-26T07:42:33.282Z,5.18
2018-11-26T07:45:00.701Z,5.19
2018-11-26T07:47:28.153Z,5.17
2018-11-26T07:49:55.581Z,5.12
2018-11-26T07:52:23.007Z,5.15
2018-11-26T07:54:50.425Z,5.04
2018-11-26T07:57:17.938Z,4.95
2018-11-26T07:59:45.393Z,5.05
2018-11-26T08:02:12.824Z,5.00
2018-11-26T08:04:40.305Z,5.08
2018-11-26T08:07:07.770Z,5.11
2018-11-26T08:09:35.206Z,5.02
2018-11-26T08:12:02.629Z,5.02
2018-11-26T08:14:30.053Z,5.01
2018-11-26T08:16:57.506Z,5.07
2018-11-26T08:19:24.954Z,4.95
2018-11-26T08:21:52.414Z,4.96
2018-11-26T08:24:19.838Z,5.06
2018-11-26T08:26:47.619Z,5.03
2018-11-26T08:29:15.046Z,5.05
2018-11-26T08:31:42.474Z,5.05
2018-11-26T08:34:09.901Z,5.03
2018-11-26T08:36:43.470Z,4.98
2018-11-26T08:39:15.094Z,4.90
2018-11-26T08:41:48.022Z,4.93
2018-11-26T08:44:19.642Z,4.95
2018-11-26T08:46:47.069Z,4.92
2018-11-26T08:49:18.677Z,4.94
2018-11-26T08:51:46.511Z,4.97
2018-11-26T08:54:14.037Z,5.01
2018-11-26T08:56:41.493Z,5.02
2018-11-26T08:59:10.015Z,4.95
2018-11-26T09:01:42.491Z,4.97
2018-11-26T09:04:11.101Z,5.00
2018-11-26T09:06:38.530Z,4.99
2018-11-26T09:09:06.063Z,4.94
2018-11-26T09:11:33.483Z,4.97
2018-11-26T09:14:00.913Z,4.97
2018-11-26T09:16:28.343Z,4.96
2018-11-26T09:18:55.770Z,4.97
2018-11-26T09:21:23.200Z,4.84
2018-11-26T09:23:50.634Z,4.78
2018-11-26T09:26:18.514Z,4.71
2018-11-26T09:28:45.934Z,4.66
2018-11-26T09:31:13.355Z,4.62
2018-11-26T09:33:40.836Z,4.59
2018-11-26T09:36:08.245Z,4.60
2018-11-26T09:38:35.756Z,4.59
2018-11-26T09:41:03.193Z,4.64
2018-11-26T09:43:30.662Z,4.54
2018-11-26T09:45:58.120Z,4.62
2018-11-26T09:48:25.545Z,4.62
2018-11-26T09:50:52.961Z,4.56
2018-11-26T09:53:20.400Z,4.63
2018-11-26T09:55:47.832Z,4.60
2018-11-26T09:58:15.265Z,4.51
2018-11-26T10:00:42.684Z,4.44
2018-11-26T10:03:10.213Z,4.34
2018-11-26T10:05:38.007Z,4.39
2018-11-26T10:08:05.453Z,4.38
2018-11-26T10:10:33.555Z,4.38
2018-11-26T10:13:00.976Z,4.45
2018-11-26T10:15:28.393Z,4.42
2018-11-26T10:17:55.812Z,4.48
2018-11-26T10:20:23.242Z,4.47
2018-11-26T10:22:50.674Z,4.51
2018-11-26T10:25:18.165Z,4.49
2018-11-26T10:27:45.621Z,4.50
2018-11-26T10:30:13.177Z,4.49
2018-11-26T10:32:40.610Z,4.61
2018-11-26T10:35:08.051Z,4.63
2018-11-26T10:37:35.567Z,4.60
2018-11-26T10:40:02.989Z,4.52
2018-11-26T10:42:30.419Z,4.60
2018-11-26T10:44:57.922Z,4.62
2018-11-26T10:47:25.426Z,4.68
2018-11-26T10:49:52.871Z,4.64
2018-11-26T10:52:20.303Z,4.62
2018-11-26T10:54:48.157Z,4.74
2018-11-26T10:57:15.163Z,4.80
2018-11-26T10:59:42.596Z,4.79
2018-11-26T11:02:15.540Z,4.75
2018-11-26T11:04:47.588Z,4.71
2018-11-26T11:07:10.527Z,4.82
2018-11-26T11:09:38.011Z,4.87
2018-11-26T11:12:05.371Z,4.92
2018-11-26T11:14:32.846Z,5.00
2018-11-26T11:17:00.277Z,4.95
2018-11-26T11:19:27.699Z,5.05
2018-11-26T11:21:55.122Z,5.02
2018-11-26T11:24:22.610Z,5.00
2018-11-26T11:26:50.036Z,5.04
2018-11-26T11:29:17.464Z,4.95
2018-11-26T11:31:45.335Z,5.01
2018-11-26T11:34:12.765Z,4.95
2018-11-26T11:36:40.828Z,5.03
2018-11-26T11:39:08.348Z,5.10
2018-11-26T11:41:35.762Z,5.08
2018-11-26T11:44:03.196Z,5.24
2018-11-26T11:46:30.715Z,5.23
2018-11-26T11:48:58.176Z,5.11
2018-11-26T11:51:25.604Z,5.15
2018-11-26T11:53:53.107Z,5.22
2018-11-26T11:56:20.551Z,5.22
2018-11-26T11:58:47.989Z,5.30
2018-11-26T12:01:15.412Z,5.28
2018-11-26T12:03:42.922Z,5.36
2018-11-26T12:06:11.358Z,5.30
2018-11-26T12:08:38.468Z,5.26
2018-11-26T12:11:05.915Z,5.31
2018-11-26T12:13:33.340Z,5.30
2018-11-26T12:16:00.792Z,5.25
2018-11-26T12:18:28.224Z,5.24
2018-11-26T12:20:55.659Z,5.27
2018-11-26T12:23:23.097Z,5.27
2018-11-26T12:25:50.560Z,5.27
2018-11-26T12:28:17.980Z,5.25
2018-11-26T12:30:45.412Z,5.23
2018-11-26T12:33:12.839Z,5.30
2018-11-26T12:35:40.258Z,5.35
2018-11-26T12:38:07.744Z,5.29
2018-11-26T12:40:35.172Z,5.32
2018-11-26T12:43:02.608Z,5.36
2018-11-26T12:45:30.420Z,5.31
2018-11-26T12:47:58.055Z,5.27
2018-11-26T12:50:25.491Z,5.23
2018-11-26T12:52:52.911Z,5.25
2018-11-26T12:55:20.348Z,5.25
2018-11-26T12:57:47.810Z,5.20
2018-11-26T13:00:15.274Z,5.26
2018-11-26T13:02:42.705Z,5.28
2018-11-26T13:05:10.118Z,5.21
2018-11-26T13:07:37.554Z,5.20
2018-11-26T13:10:04.997Z,5.19
2018-11-26T13:12:32.436Z,5.17
2018-11-26T13:15:00.696Z,5.10
2018-11-26T13:17:27.311Z,5.06
2018-11-26T13:19:54.831Z,5.23
2018-11-26T13:22:22.258Z,5.29
2018-11-26T13:24:49.700Z,5.23
2018-11-26T13:27:17.124Z,5.17
2018-11-26T13:29:44.660Z,5.20
2018-11-26T13:32:12.086Z,5.20
2018-11-26T13:34:39.825Z,5.18
2018-11-26T13:37:07.415Z,5.22
2018-11-26T13:39:34.839Z,5.18
2018-11-26T13:42:02.271Z,5.18
2018-11-26T13:44:30.204Z,5.21
2018-11-26T13:46:57.632Z,5.12
2018-11-26T13:49:25.729Z,5.08
2018-11-26T13:51:53.204Z,5.06
2018-11-26T13:54:20.628Z,5.06
2018-11-26T13:56:48.060Z,4.98
2018-11-26T13:59:15.552Z,4.98
2018-11-26T14:01:43.024Z,4.91
2018-11-26T14:04:10.501Z,4.86
2018-11-26T14:06:37.927Z,4.78
2018-11-26T14:09:05.947Z,4.68
2018-11-26T14:11:33.388Z,4.65
2018-11-26T14:14:01.390Z,4.60
2018-11-26T14:16:28.815Z,4.58
2018-11-26T14:18:56.267Z,4.57
2018-11-26T14:21:23.724Z,4.41
2018-11-26T14:23:51.248Z,4.47
2018-11-26T14:26:18.746Z,4.43
2018-11-26T14:28:46.177Z,4.30
2018-11-26T14:31:13.615Z,4.34
2018-11-26T14:33:41.058Z,4.32
2018-11-26T14:36:08.487Z,4.35
2018-11-26T14:38:36.230Z,4.30
2018-11-26T14:41:03.691Z,4.31
2018-11-26T14:43:31.181Z,4.27
2018-11-26T14:45:58.572Z,4.29
2018-11-26T14:48:26.018Z,4.31
2018-11-26T14:50:53.444Z,4.35
2018-11-26T14:53:20.871Z,4.27
2018-11-26T14:55:48.340Z,4.30
2018-11-26T14:58:15.765Z,4.23
2018-11-26T15:00:43.251Z,4.30
2018-11-26T15:03:10.677Z,4.26
2018-11-26T15:05:38.112Z,4.30
2018-11-26T15:08:06.302Z,4.27
2018-11-26T15:10:33.804Z,4.26
2018-11-26T15:13:01.226Z,4.32
2018-11-26T15:15:28.714Z,4.32
2018-11-26T15:17:56.237Z,4.25
2018-11-26T15:20:24.243Z,4.17
2018-11-26T15:22:51.704Z,4.42
2018-11-26T15:25:19.155Z,4.28
2018-11-26T15:27:46.586Z,4.33
2018-11-26T15:30:14.027Z,4.20
2018-11-26T15:32:41.463Z,4.17
2018-11-26T15:35:09.391Z,4.23
2018-11-26T15:37:36.821Z,4.39
2018-11-26T15:40:04.320Z,4.30
2018-11-26T15:42:31.759Z,4.30
2018-11-26T15:44:59.230Z,4.07
2018-11-26T15:47:26.678Z,4.13
2018-11-26T15:49:54.738Z,4.19
2018-11-26T15:52:22.160Z,4.24
2018-11-26T15:54:49.614Z,4.28
2018-11-26T15:57:17.056Z,4.18
2018-11-26T15:59:44.583Z,4.20
2018-11-26T16:02:12.006Z,4.33
2018-11-26T16:04:39.431Z,4.34
2018-11-26T16:07:07.047Z,4.37
2018-11-26T16:09:34.520Z,4.29
2018-11-26T16:12:01.980Z,4.27
2018-11-26T16:14:29.401Z,4.70
2018-11-26T16:16:56.833Z,4.73
2018-11-26T16:19:24.256Z,4.82
2018-11-26T16:21:51.698Z,5.21
2018-11-26T16:24:19.198Z,4.91
2018-11-26T16:26:46.704Z,5.11
2018-11-26T16:29:14.182Z,5.32
2018-11-26T16:31:41.635Z,5.00
2018-11-26T16:34:09.076Z,4.72
2018-11-26T16:36:36.503Z,4.85
2018-11-26T16:39:05.915Z,4.86
2018-11-26T16:41:33.535Z,4.89
2018-11-26T16:44:01.272Z,5.06
2018-11-26T16:46:28.699Z,5.32
2018-11-26T16:48:56.111Z,5.35
2018-11-26T16:51:23.652Z,5.11
2018-11-26T16:53:51.080Z,5.18
2018-11-26T16:56:18.518Z,5.22
2018-11-26T16:58:46.023Z,5.36
2018-11-26T17:01:13.487Z,5.30
2018-11-26T17:03:40.944Z,5.33
2018-11-26T17:06:08.371Z,5.27
2018-11-26T17:08:35.799Z,5.29
2018-11-26T17:11:03.224Z,5.40
2018-11-26T17:13:30.660Z,5.22
2018-11-26T17:15:58.132Z,5.18
2018-11-26T17:18:25.591Z,5.02
2018-11-26T17:20:53.036Z,4.78
2018-11-26T17:23:20.475Z,4.76
2018-11-26T17:25:47.912Z,4.62
2018-11-26T17:28:15.356Z,4.58
2018-11-26T17:30:42.787Z,4.48
2018-11-26T17:33:10.216Z,4.51
2018-11-26T17:35:37.645Z,4.64
2018-11-26T17:38:05.144Z,4.74
2018-11-26T17:40:32.608Z,4.68
2018-11-26T17:43:01.782Z,4.79
2018-11-26T17:45:29.177Z,4.59
2018-11-26T17:47:56.626Z,4.58
2018-11-26T17:50:24.052Z,4.66
2018-11-26T17:52:51.526Z,4.62
2018-11-26T17:55:18.989Z,4.57
2018-11-26T17:57:46.421Z,4.55
2018-11-26T18:00:13.868Z,4.48
2018-11-26T18:02:41.304Z,4.62
2018-11-26T18:05:08.727Z,4.54
2018-11-26T18:07:36.172Z,4.36
2018-11-26T18:10:03.597Z,4.28
2018-11-26T18:12:31.035Z,4.32
2018-11-26T18:14:58.545Z,4.18
2018-11-26T18:17:25.976Z,4.31
2018-11-26T18:19:53.464Z,4.25
2018-11-26T18:22:20.924Z,4.18
2018-11-26T18:24:48.375Z,4.38
2018-11-26T18:27:15.803Z,4.17
2018-11-26T18:29:43.989Z,4.32
2018-11-26T18:32:11.399Z,4.41
2018-11-26T18:34:38.920Z,4.38
2018-11-26T18:37:06.363Z,4.45
2018-11-26T18:39:33.807Z,4.44
2018-11-26T18:42:01.299Z,4.50
2018-11-26T18:44:28.756Z,4.41
2018-11-26T18:46:56.184Z,4.43
2018-11-26T18:49:23.677Z,4.34
2018-11-26T18:51:51.209Z,4.32
2018-11-26T18:54:18.678Z,4.19
2018-11-26T18:56:46.141Z,4.11
2018-11-26T18:59:13.595Z,4.00
2018-11-26T19:01:41.028Z,3.94
2018-11-26T19:04:08.469Z,3.97
2018-11-26T19:06:35.892Z,3.98
2018-11-26T19:09:03.351Z,4.01
2018-11-26T19:11:30.795Z,3.97
2018-11-26T19:13:58.245Z,4.05
2018-11-26T19:16:25.689Z,4.11
2018-11-26T19:18:53.128Z,4.07
2018-11-26T19:21:20.560Z,3.99
2018-11-26T19:23:47.991Z,3.85
2018-11-26T19:26:17.599Z,4.08
2018-11-26T19:28:45.024Z,4.00
2018-11-26T19:31:12.463Z,4.11
2018-11-26T19:33:39.954Z,4.14
2018-11-26T19:36:07.374Z,4.02
2018-11-26T19:38:34.809Z,3.98
2018-11-26T19:41:02.848Z,3.92
2018-11-26T19:43:30.288Z,3.94
2018-11-26T19:45:57.737Z,4.01
2018-11-26T19:48:25.172Z,4.06
2018-11-26T19:50:52.673Z,4.08
2018-11-26T19:53:20.108Z,4.17
2018-11-26T19:55:47.547Z,4.14
2018-11-26T19:58:14.979Z,4.15
2018-11-26T20:00:42.415Z,3.84
2018-11-26T20:03:09.960Z,3.70
2018-11-26T20:05:37.405Z,3.65
2018-11-26T20:08:04.838Z,3.53
2018-11-26T20:10:32.268Z,3.55
2018-11-26T20:12:59.713Z,3.67
2018-11-26T20:15:27.144Z,3.66
2018-11-26T20:17:59.068Z,3.65
2018-11-26T20:20:22.016Z,3.67
2018-11-26T20:22:49.475Z,3.70
2018-11-26T20:25:16.906Z,3.65
2018-11-26T20:27:44.708Z,3.57
2018-11-26T20:30:12.327Z,3.54
2018-11-26T20:32:39.751Z,3.47
2018-11-26T20:35:07.183Z,3.55
2018-11-26T20:37:34.672Z,3.55
2018-11-26T20:40:02.131Z,3.48
2018-11-26T20:42:29.554Z,3.40
2018-11-26T20:44:56.996Z,3.24
2018-11-26T20:47:24.430Z,3.26
2018-11-26T20:49:51.864Z,3.17
2018-11-26T20:52:19.305Z,3.05
2018-11-26T20:54:46.745Z,3.11
2018-11-26T20:57:14.172Z,3.07
2018-11-26T20:59:41.608Z,3.07
2018-11-26T21:02:09.037Z,3.06
2018-11-26T21:04:36.495Z,3.10
2018-11-26T21:07:03.935Z,3.03
2018-11-26T21:09:31.392Z,3.17
2018-11-26T21:11:58.800Z,3.09
2018-11-26T21:14:26.329Z,3.18
2018-11-26T21:16:53.792Z,3.14
2018-11-26T21:19:21.226Z,3.13
2018-11-26T21:21:48.653Z,3.17
2018-11-26T21:24:16.084Z,3.25
2018-11-26T21:26:43.620Z,3.22
2018-11-26T21:29:11.080Z,3.17
2018-11-26T21:31:38.507Z,3.17
2018-11-26T21:34:05.940Z,3.15
2018-11-26T21:36:33.452Z,3.14
2018-11-26T21:39:00.880Z,3.17
2018-11-26T21:41:28.302Z,3.14
2018-11-26T21:43:55.836Z,3.00
2018-11-26T21:46:23.256Z,2.98
2018-11-26T21:48:50.691Z,2.99
2018-11-26T21:51:18.195Z,2.86
2018-11-26T21:53:45.618Z,2.82
2018-11-26T21:56:13.620Z,2.82
2018-11-26T21:58:41.081Z,2.87
2018-11-26T22:01:08.504Z,2.93
2018-11-26T22:03:35.955Z,2.92
2018-11-26T22:06:03.400Z,3.03
2018-11-26T22:08:30.829Z,2.84
2018-11-26T22:10:58.260Z,2.89
2018-11-26T22:13:26.063Z,3.07
2018-11-26T22:15:53.503Z,3.00
2018-11-26T22:18:20.933Z,3.01
2018-11-26T22:20:48.398Z,2.99
2018-11-26T22:23:15.840Z,2.92
2018-11-26T22:25:43.272Z,2.98
2018-11-26T22:28:10.709Z,2.90
2018-11-26T22:30:38.159Z,2.89
2018-11-26T22:33:05.582Z,3.05
2018-11-26T22:35:33.005Z,3.03
2018-11-26T22:38:00.435Z,2.96
2018-11-26T22:40:27.887Z,2.93
2018-11-26T22:42:55.507Z,2.99
2018-11-26T22:45:23.247Z,2.88
2018-11-26T22:47:50.681Z,2.84
2018-11-26T22:50:18.100Z,2.72
2018-11-26T22:52:45.532Z,2.65
2018-11-26T22:55:12.974Z,2.62
2018-11-26T22:57:40.415Z,2.54
2018-11-26T23:00:07.852Z,2.62
2018-11-26T23:02:35.291Z,2.59
2018-11-26T23:05:02.722Z,2.62
2018-11-26T23:07:30.151Z,2.59
2018-11-26T23:09:57.647Z,2.41
2018-11-26T23:12:25.084Z,2.40
2018-11-26T23:14:52.568Z,2.47
2018-11-26T23:17:19.995Z,2.48
2018-11-26T23:19:47.422Z,2.53
2018-11-26T23:22:14.939Z,2.62
2018-11-26T23:24:42.399Z,2.63
2018-11-26T23:27:09.832Z,2.52
2018-11-26T23:29:37.398Z,2.63
2018-11-26T23:32:04.810Z,2.47
2018-11-26T23:34:32.344Z,2.44
2018-11-26T23:36:59.772Z,2.34
2018-11-26T23:39:27.417Z,2.44
2018-11-26T23:41:54.708Z,2.49
2018-11-26T23:44:22.141Z,2.37
2018-11-26T23:46:49.577Z,2.48
2018-11-26T23:49:17.021Z,2.49
2018-11-26T23:51:44.444Z,2.54
2018-11-26T23:54:11.880Z,2.51
2018-11-26T23:56:39.357Z,2.62
2018-11-26T23:59:06.784Z,2.50
